Time;durP1;ratioP1;P1;durP2;ratioP2;P2;SDS_P1;SDS_P2;PMS_P1;PMS_P2;Temp;Humidity;BMP_temperature;BMP_pressure;BME280_temperature;BME280_humidity;BME280_pressure;Samples;Min_cycle;Max_cycle;Signal;HPM_P1;HPM_P2
2022/04/11 00:00:46;;;;;;;12.00;6.35;;;;;;;4.14;74.60;101863.53;5050664;28;20668;-69
2022/04/11 00:03:11;;;;;;;16.25;6.65;;;;;;;4.11;75.36;101851.44;5050639;28;20469;-69
2022/04/11 00:05:37;;;;;;;17.05;7.20;;;;;;;4.08;74.37;101856.13;5050374;28;20083;-71
2022/04/11 00:08:02;;;;;;;21.58;9.70;;;;;;;4.02;74.74;101841.63;5050225;28;20033;-69
2022/04/11 00:10:28;;;;;;;16.33;7.40;;;;;;;4.07;74.00;101851.81;5050033;28;20067;-69
2022/04/11 00:13:04;;;;;;;15.20;7.22;;;;;;;4.09;74.16;101850.72;5050116;28;20067;-71
2022/04/11 00:15:30;;;;;;;15.27;7.65;;;;;;;4.08;74.35;101846.38;5050065;28;20082;-71
2022/04/11 00:17:55;;;;;;;15.13;7.35;;;;;;;4.09;73.59;101849.88;5049978;28;20032;-69
2022/04/11 00:20:20;;;;;;;14.40;6.95;;;;;;;4.09;73.89;101848.06;5050150;28;20492;-69
2022/04/11 00:22:46;;;;;;;14.95;7.40;;;;;;;4.06;73.36;101839.56;5050217;28;20040;-69
2022/04/11 00:25:11;;;;;;;13.60;6.68;;;;;;;4.10;73.51;101846.25;5049685;28;20021;-71
2022/04/11 00:27:37;;;;;;;13.70;7.45;;;;;;;4.09;73.34;101845.44;5048786;28;20029;-69
2022/04/11 00:30:03;;;;;;;13.75;7.28;;;;;;;4.09;72.92;101834.88;5048803;28;20043;-71
2022/04/11 00:32:28;;;;;;;16.73;7.22;;;;;;;4.13;73.85;101836.28;5049892;28;20025;-71
2022/04/11 00:34:53;;;;;;;16.02;9.15;;;;;;;4.12;73.33;101837.25;5050126;28;20135;-69
2022/04/11 00:37:19;;;;;;;14.65;7.32;;;;;;;4.11;73.12;101827.66;5048810;28;20056;-72
2022/04/11 00:39:44;;;;;;;15.65;8.60;;;;;;;4.12;73.04;101824.06;5049999;28;20028;-69
2022/04/11 00:42:11;;;;;;;14.02;7.68;;;;;;;4.12;72.45;101828.50;5049939;28;20025;-69
2022/04/11 00:44:36;;;;;;;16.80;7.65;;;;;;;4.10;72.24;101815.41;5049652;28;20557;-69
2022/04/11 00:47:02;;;;;;;14.82;7.15;;;;;;;4.14;72.75;101818.66;5049825;28;20049;-69
2022/04/11 00:49:28;;;;;;;17.95;8.80;;;;;;;4.14;74.67;101813.38;5049700;28;20484;-69
2022/04/11 00:51:53;;;;;;;18.10;7.90;;;;;;;4.14;74.26;101813.38;5049764;28;20037;-69
2022/04/11 00:54:20;;;;;;;14.00;7.55;;;;;;;4.12;73.37;101813.50;5049060;28;20071;-72
2022/04/11 00:56:46;;;;;;;14.93;7.18;;;;;;;4.12;73.82;101804.75;5049406;28;20025;-72
2022/04/11 00:59:13;;;;;;;15.13;7.38;;;;;;;4.11;73.60;101809.19;5049620;28;20056;-69
2022/04/11 01:01:39;;;;;;;12.95;7.60;;;;;;;4.11;72.94;101805.69;5049616;28;20499;-69
2022/04/11 01:04:05;;;;;;;14.25;7.85;;;;;;;4.09;73.34;101792.63;5049461;28;20032;-72
2022/04/11 01:06:30;;;;;;;15.07;7.88;;;;;;;4.12;74.02;101802.09;5048187;28;20468;-72
2022/04/11 01:08:56;;;;;;;15.73;8.38;;;;;;;4.12;73.39;101802.09;5049269;28;20075;-69
2022/04/11 01:11:22;;;;;;;16.02;9.23;;;;;;;4.06;73.49;101792.03;5048968;28;20383;-69
2022/04/11 01:13:47;;;;;;;16.10;8.63;;;;;;;4.09;73.36;101792.63;5049356;28;20107;-71
2022/04/11 01:16:13;;;;;;;17.42;8.43;;;;;;;4.09;74.00;101792.63;5049267;28;20028;-71
2022/04/11 01:18:39;;;;;;;16.60;9.30;;;;;;;4.03;73.87;101787.88;5047997;28;20060;-71
2022/04/11 01:21:07;;;;;;;14.98;8.85;;;;;;;4.05;74.50;101788.56;5049292;28;20032;-69
2022/04/11 01:23:32;;;;;;;16.15;9.38;;;;;;;4.07;75.15;101791.09;5049002;28;20546;-71
2022/04/11 01:25:58;;;;;;;14.50;7.93;;;;;;;4.07;73.67;101793.75;5047623;28;20025;-70
2022/04/11 01:28:24;;;;;;;13.75;8.15;;;;;;;4.10;73.87;101788.19;5048543;28;20033;-69
2022/04/11 01:30:52;;;;;;;21.83;8.63;;;;;;;4.09;73.76;101784.72;5049168;28;20048;-69
2022/04/11 01:33:22;;;;;;;18.65;10.15;;;;;;;4.10;73.40;101788.19;5048856;28;20060;-70
2022/04/11 01:35:47;;;;;;;14.52;8.30;;;;;;;4.12;74.15;101787.09;5049176;28;20033;-69
2022/04/11 01:38:13;;;;;;;16.02;8.20;;;;;;;4.09;74.44;101782.09;5050018;28;20083;-70
2022/04/11 01:40:59;;;;;;;20.33;9.25;;;;;;;4.16;74.01;101792.94;5051994;28;20025;-71
2022/04/11 01:43:25;;;;;;;27.95;9.95;;;;;;;4.14;74.30;101792.25;5052337;28;20061;-69
2022/04/11 01:45:51;;;;;;;14.07;9.23;;;;;;;4.11;73.40;101777.50;5052879;28;20043;-69
2022/04/11 01:48:17;;;;;;;14.35;8.13;;;;;;;4.14;74.41;101790.44;5053002;28;20025;-71
2022/04/11 01:50:43;;;;;;;16.27;8.70;;;;;;;4.15;73.65;101784.19;5053159;28;20444;-71
2022/04/11 01:53:14;;;;;;;16.05;8.05;;;;;;;4.15;74.81;101793.91;5052862;28;20067;-69
2022/04/11 01:55:40;;;;;;;16.05;9.30;;;;;;;4.12;75.89;101789.72;5052611;28;20037;-71
2022/04/11 01:58:06;;;;;;;17.83;9.32;;;;;;;4.11;76.35;101789.84;5053161;28;20381;-69
2022/04/11 02:00:32;;;;;;;15.02;8.15;;;;;;;4.07;76.47;101789.28;5052844;28;20477;-71
2022/04/11 02:02:59;;;;;;;17.15;9.05;;;;;;;4.05;76.51;101785.09;5052743;28;20067;-69
2022/04/11 02:05:25;;;;;;;16.38;9.23;;;;;;;3.99;75.72;101775.91;5052678;28;20488;-71
2022/04/11 02:07:51;;;;;;;16.80;8.27;;;;;;;4.01;76.36;101781.03;5052719;28;20438;-69
2022/04/11 02:10:16;;;;;;;18.38;8.60;;;;;;;3.97;76.62;101783.13;5051330;28;20124;-71
2022/04/11 02:12:42;;;;;;;17.17;9.45;;;;;;;3.88;75.21;101768.91;5052289;28;20119;-71
2022/04/11 02:15:09;;;;;;;16.10;8.70;;;;;;;3.96;76.08;101784.09;5052507;28;20048;-69
2022/04/11 02:17:34;;;;;;;15.13;8.48;;;;;;;3.94;76.68;101776.28;5052657;28;20037;-70
2022/04/11 02:19:59;;;;;;;20.15;10.30;;;;;;;3.82;77.44;101764.13;5052613;28;20087;-69
2022/04/11 02:22:25;;;;;;;15.77;9.25;;;;;;;3.89;76.57;101785.56;5052352;28;20532;-71
2022/04/11 02:24:50;;;;;;;17.75;10.55;;;;;;;3.82;77.06;101782.59;5052442;28;20087;-69
2022/04/11 02:27:15;;;;;;;15.73;8.85;;;;;;;3.82;76.70;101787.06;5052202;28;20037;-69
2022/04/11 02:29:41;;;;;;;18.17;8.95;;;;;;;3.79;76.89;101787.31;5052038;28;20037;-71
2022/04/11 02:32:07;;;;;;;17.05;10.52;;;;;;;3.76;76.99;101787.56;5052273;28;20087;-69
2022/04/11 02:34:32;;;;;;;21.42;9.30;;;;;;;3.69;77.82;101789.88;5051966;28;20060;-69
2022/04/11 02:36:58;;;;;;;18.17;9.23;;;;;;;3.69;77.42;101792.50;5050979;28;20043;-71
2022/04/11 02:39:23;;;;;;;15.60;9.18;;;;;;;3.63;77.36;101785.97;5051966;28;20025;-71
2022/04/11 02:41:48;;;;;;;19.10;9.48;;;;;;;3.57;77.41;101783.00;5052153;28;20103;-72
2022/04/11 02:44:14;;;;;;;15.57;9.10;;;;;;;3.53;77.77;101786.84;5052073;28;20033;-71
2022/04/11 02:46:42;;;;;;;17.95;9.90;;;;;;;3.47;78.18;101777.66;5052253;28;20033;-71
2022/04/11 02:49:08;;;;;;;16.20;8.77;;;;;;;3.45;78.67;101782.22;5051434;28;20504;-69
2022/04/11 02:51:33;;;;;;;24.67;9.93;;;;;;;3.40;78.40;101777.31;5050409;28;20025;-69
2022/04/11 02:54:01;;;;;;;16.67;9.13;;;;;;;3.37;78.73;101774.94;5051593;28;20045;-69
2022/04/11 02:56:27;;;;;;;18.15;9.45;;;;;;;3.35;77.92;101776.84;5051816;28;20492;-69
2022/04/11 02:58:52;;;;;;;14.77;8.68;;;;;;;3.34;78.61;101774.38;5051731;28;20039;-69
2022/04/11 03:01:17;;;;;;;18.50;10.50;;;;;;;3.31;78.58;101782.53;5050452;28;20032;-69
2022/04/11 03:03:43;;;;;;;17.55;9.20;;;;;;;3.31;79.07;101779.91;5051537;28;20039;-71
2022/04/11 03:06:08;;;;;;;15.80;8.73;;;;;;;3.27;79.23;101777.50;5051701;28;20148;-69
2022/04/11 03:08:33;;;;;;;19.10;8.95;;;;;;;3.23;78.43;101777.88;5051653;28;20067;-69
2022/04/11 03:10:59;;;;;;;19.98;9.93;;;;;;;3.19;78.85;101768.53;5050229;28;20072;-72
2022/04/11 03:13:24;;;;;;;16.63;9.88;;;;;;;3.15;78.69;101775.03;5051429;28;20052;-71
2022/04/11 03:15:50;;;;;;;20.13;10.95;;;;;;;3.08;78.81;101754.44;5051648;28;20028;-71
2022/04/11 03:18:15;;;;;;;17.83;9.82;;;;;;;3.08;78.59;101758.88;5051433;28;20083;-69
2022/04/11 03:20:40;;;;;;;19.38;11.45;;;;;;;3.04;79.48;101765.38;5050194;28;20043;-71
2022/04/11 03:23:06;;;;;;;16.65;9.98;;;;;;;2.99;79.32;101762.28;5051351;28;20094;-71
2022/04/11 03:25:31;;;;;;;18.65;9.60;;;;;;;2.92;78.97;101754.03;5049894;28;20047;-70
2022/04/11 03:27:57;;;;;;;17.35;9.60;;;;;;;2.93;79.20;101766.22;5051252;28;20112;-69
2022/04/11 03:30:22;;;;;;;17.52;10.85;;;;;;;2.91;78.99;101767.31;5051278;28;20075;-71
2022/04/11 03:32:47;;;;;;;20.88;10.10;;;;;;;2.86;80.09;101767.69;5051229;28;20040;-69
2022/04/11 03:35:13;;;;;;;16.67;9.55;;;;;;;2.77;80.27;101757.88;5051350;28;20086;-71
2022/04/11 03:37:38;;;;;;;20.52;11.20;;;;;;;2.77;80.19;101773.69;5051132;28;20060;-71
2022/04/11 03:40:06;;;;;;;16.92;9.85;;;;;;;2.72;80.90;101767.97;5051196;28;20029;-69
2022/04/11 03:42:32;;;;;;;15.57;9.23;;;;;;;2.66;80.40;101768.47;5051167;28;20029;-71
2022/04/11 03:44:58;;;;;;;18.73;9.35;;;;;;;2.65;79.86;101778.16;5050968;28;20373;-69
2022/04/11 03:47:23;;;;;;;16.88;8.93;;;;;;;2.65;80.77;101783.44;5050786;28;20033;-71
2022/04/11 03:49:48;;;;;;;21.27;9.25;;;;;;;2.60;80.88;101767.97;5050970;28;20086;-69
2022/04/11 03:52:14;;;;;;;16.38;8.82;;;;;;;2.58;80.57;101782.22;5050731;28;20029;-69
2022/04/11 03:54:39;;;;;;;19.45;10.55;;;;;;;2.56;80.47;101776.25;5050796;28;20053;-72
2022/04/11 03:57:04;;;;;;;16.42;9.63;;;;;;;2.55;80.57;101777.22;5050774;28;20033;-69
2022/04/11 03:59:30;;;;;;;17.70;10.90;;;;;;;2.52;80.81;101778.28;5050676;28;21044;-69
2022/04/11 04:01:55;;;;;;;17.52;9.85;;;;;;;2.49;80.54;101770.63;5050579;28;20035;-69
2022/04/11 04:04:21;;;;;;;18.52;10.40;;;;;;;2.40;80.73;101760.81;5049221;28;20496;-69
2022/04/11 04:06:46;;;;;;;16.45;10.07;;;;;;;2.44;80.71;101774.56;5050639;28;20389;-72
2022/04/11 04:09:12;;;;;;;17.55;9.10;;;;;;;2.42;80.79;101778.16;5049365;28;20041;-69
2022/04/11 04:11:37;;;;;;;18.27;10.02;;;;;;;2.36;80.49;101772.56;5050335;28;20029;-69
2022/04/11 04:14:02;;;;;;;20.13;9.65;;;;;;;2.34;80.99;101774.47;5032426;28;20136;-71
2022/04/11 04:16:28;;;;;;;18.05;9.30;;;;;;;2.27;81.06;101770.63;5050283;28;20047;-72
2022/04/11 04:18:53;;;;;;;18.48;9.23;;;;;;;2.26;80.34;101772.44;5050190;28;20375;-69
2022/04/11 04:21:18;;;;;;;18.05;9.55;;;;;;;2.19;80.67;101764.16;5050370;28;20028;-69
2022/04/11 04:23:45;;;;;;;17.38;10.00;;;;;;;2.22;81.37;101764.88;5048992;28;20120;-72
2022/04/11 04:26:10;;;;;;;16.50;9.02;;;;;;;2.15;80.39;101754.84;5049629;28;20059;-72
2022/04/11 04:28:35;;;;;;;17.67;10.20;;;;;;;2.10;80.45;101751.75;5050163;28;20036;-69
2022/04/11 04:31:01;;;;;;;19.20;9.30;;;;;;;2.17;80.59;101752.94;5049954;28;20041;-71
2022/04/11 04:33:29;;;;;;;17.65;9.52;;;;;;;2.13;79.96;101746.22;5050049;28;20033;-71
2022/04/11 04:35:55;;;;;;;16.92;9.40;;;;;;;2.17;80.32;101752.94;5049920;28;20056;-69
2022/04/11 04:38:20;;;;;;;16.70;10.73;;;;;;;2.14;81.39;101752.31;5050048;28;20486;-71
2022/04/11 04:40:45;;;;;;;19.30;9.77;;;;;;;2.12;81.25;101757.72;5049946;28;20033;-71
2022/04/11 04:43:11;;;;;;;19.00;10.70;;;;;;;2.12;80.59;101743.72;5049828;28;20041;-71
2022/04/11 04:45:36;;;;;;;25.55;10.25;;;;;;;2.13;80.12;101750.66;5049766;28;20029;-69
2022/04/11 04:48:02;;;;;;;17.27;9.45;;;;;;;2.15;80.24;101751.38;5049795;28;20033;-71
2022/04/11 04:50:27;;;;;;;20.02;10.40;;;;;;;2.13;80.46;101751.50;5049747;28;20032;-69
2022/04/11 04:52:52;;;;;;;16.75;9.00;;;;;;;2.14;81.12;101754.97;5048481;28;20072;-71
2022/04/11 04:55:18;;;;;;;15.32;8.68;;;;;;;2.11;81.37;101750.78;5048144;28;20049;-69
2022/04/11 04:57:43;;;;;;;16.67;8.50;;;;;;;2.05;81.32;101746.00;5049316;28;20885;-71
2022/04/11 05:00:09;;;;;;;16.90;9.00;;;;;;;2.09;81.50;101749.22;5049575;28;20041;-71
2022/04/11 05:02:38;;;;;;;14.38;8.30;;;;;;;2.09;81.22;101751.84;5049504;28;20028;-71
2022/04/11 05:05:05;;;;;;;17.45;8.95;;;;;;;2.08;80.83;101743.13;5049292;28;20122;-71
2022/04/11 05:07:31;;;;;;;19.77;9.82;;;;;;;2.14;81.27;101747.06;5049179;28;20040;-71
2022/04/11 05:09:56;;;;;;;17.20;8.07;;;;;;;2.17;81.74;101745.06;5049190;28;20465;-71
2022/04/11 05:12:21;;;;;;;17.15;9.00;;;;;;;2.21;80.86;101747.44;5049324;28;20028;-71
2022/04/11 05:14:47;;;;;;;17.48;8.85;;;;;;;2.19;80.57;101739.66;5048692;28;20056;-71
2022/04/11 05:17:12;;;;;;;16.95;10.02;;;;;;;2.23;80.52;101734.97;5047684;28;20033;-69
2022/04/11 05:19:37;;;;;;;21.02;9.70;;;;;;;2.32;79.96;101742.16;5049004;28;20036;-71
2022/04/11 05:22:03;;;;;;;20.08;8.40;;;;;;;2.34;79.29;101735.81;5049192;28;20028;-71
2022/04/11 05:24:29;;;;;;;13.05;7.88;;;;;;;2.38;79.74;101734.63;5049149;28;20044;-71
2022/04/11 05:26:54;;;;;;;14.98;8.73;;;;;;;2.46;79.74;101754.22;5047717;28;20032;-71
2022/04/11 05:29:19;;;;;;;19.02;9.30;;;;;;;2.45;79.89;101739.41;5048742;28;20388;-71
2022/04/11 05:31:45;;;;;;;17.75;10.23;;;;;;;2.44;79.40;101735.94;5048724;28;20021;-71
2022/04/11 05:34:10;;;;;;;21.50;10.45;;;;;;;2.60;79.22;101749.53;5049146;28;20036;-71
2022/04/11 05:36:35;;;;;;;19.20;10.07;;;;;;;2.72;80.30;101744.25;5048850;28;20491;-70
2022/04/11 05:39:01;;;;;;;17.23;9.95;;;;;;;2.82;78.63;101732.84;5047710;28;20542;-71
2022/04/11 05:41:26;;;;;;;17.23;9.52;;;;;;;3.07;78.59;101741.41;5049072;28;20065;-71
2022/04/11 05:43:51;;;;;;;16.88;9.02;;;;;;;3.33;78.18;101741.03;5047473;28;20040;-71
2022/04/11 05:46:17;;;;;;;16.20;8.07;;;;;;;3.63;77.39;101733.19;5048885;28;20036;-71
2022/04/11 05:48:44;;;;;;;16.15;9.05;;;;;;;3.75;75.77;101744.53;5048997;28;20419;-71
2022/04/11 05:51:09;;;;;;;18.00;9.35;;;;;;;3.78;75.81;101738.16;5047353;28;20025;-71
2022/04/11 05:53:34;;;;;;;20.17;9.70;;;;;;;3.90;76.22;101740.59;5048591;28;20060;-71
2022/04/11 05:56:00;;;;;;;15.25;8.35;;;;;;;3.99;75.04;101746.88;5048930;28;20029;-71
2022/04/11 05:58:25;;;;;;;14.15;7.70;;;;;;;4.14;75.08;101736.81;5049179;28;20066;-71
2022/04/11 06:00:50;;;;;;;19.98;9.90;;;;;;;4.42;74.80;101732.59;5048392;28;20178;-71
2022/04/11 06:03:16;;;;;;;15.07;8.55;;;;;;;4.63;74.04;101727.22;5048771;28;20029;-71
2022/04/11 06:05:41;;;;;;;15.70;8.80;;;;;;;4.87;73.10;101734.75;5047458;28;20033;-71
2022/04/11 06:08:07;;;;;;;14.52;8.80;;;;;;;4.95;72.44;101739.34;5048647;28;20032;-71
2022/04/11 06:10:32;;;;;;;16.75;8.90;;;;;;;4.92;73.56;101724.59;5048786;28;20029;-71
2022/04/11 06:12:57;;;;;;;17.75;9.02;;;;;;;5.08;72.61;101739.09;5047403;28;20142;-71
2022/04/11 06:15:23;;;;;;;13.73;7.75;;;;;;;5.09;71.18;101744.25;5048528;28;20029;-71
2022/04/11 06:17:48;;;;;;;17.85;8.43;;;;;;;5.11;72.21;101739.66;5048360;28;20033;-71
2022/04/11 06:20:13;;;;;;;17.90;8.45;;;;;;;5.14;72.02;101735.91;5048562;28;20120;-72
2022/04/11 06:22:43;;;;;;;13.95;8.00;;;;;;;5.22;72.11;101741.34;5048525;28;20116;-71
2022/04/11 06:25:09;;;;;;;15.05;9.07;;;;;;;5.31;71.52;101734.34;5049165;28;20025;-71
2022/04/11 06:27:37;;;;;;;17.80;9.70;;;;;;;5.75;72.04;101743.47;5052532;28;20492;-71
2022/04/11 06:30:04;;;;;;;16.02;9.80;;;;;;;6.09;70.75;101732.41;5052035;28;20546;-72
2022/04/11 06:32:31;;;;;;;17.67;9.52;;;;;;;6.21;70.39;101744.50;5052020;28;20044;-72
2022/04/11 06:34:57;;;;;;;18.25;9.38;;;;;;;6.35;70.25;101746.66;5051696;28;20546;-72
2022/04/11 06:37:24;;;;;;;15.05;8.75;;;;;;;6.52;68.78;101741.53;5052247;28;20037;-72
2022/04/11 06:39:50;;;;;;;17.38;9.13;;;;;;;6.55;68.11;101741.25;5052182;28;20024;-72
2022/04/11 06:42:16;;;;;;;13.32;9.02;;;;;;;6.57;68.88;101736.63;5052169;28;20044;-70
2022/04/11 06:44:41;;;;;;;15.38;9.40;;;;;;;6.63;69.94;101724.59;5051593;28;20021;-70
2022/04/11 06:47:08;;;;;;;15.38;8.57;;;;;;;6.77;68.98;101734.69;5052163;28;20032;-70
2022/04/11 06:49:34;;;;;;;16.40;8.27;;;;;;;6.82;68.49;101727.13;5051618;28;20388;-71
2022/04/11 06:51:59;;;;;;;14.85;7.90;;;;;;;6.87;68.15;101732.81;5051932;28;20465;-71
2022/04/11 06:54:25;;;;;;;13.20;7.55;;;;;;;6.86;68.02;101738.25;5051715;28;20084;-69
2022/04/11 06:56:50;;;;;;;16.83;8.35;;;;;;;6.84;68.25;101741.06;5051861;28;20102;-70
2022/04/11 06:59:16;;;;;;;15.98;8.27;;;;;;;6.77;68.82;101735.53;5051552;28;20060;-70
2022/04/11 07:01:42;;;;;;;14.55;8.73;;;;;;;6.85;68.35;101748.03;5050463;28;20040;-70
2022/04/11 07:04:08;;;;;;;13.65;8.07;;;;;;;6.88;67.84;101755.69;5051768;28;20124;-70
2022/04/11 07:06:33;;;;;;;16.88;8.63;;;;;;;6.93;69.42;101744.63;5051857;28;21064;-70
2022/04/11 07:08:58;;;;;;;15.80;9.02;;;;;;;6.98;69.34;101752.97;5051758;28;20124;-72
2022/04/11 07:11:24;;;;;;;15.02;8.70;;;;;;;7.05;70.14;101750.53;5051681;28;20124;-70
2022/04/11 07:13:49;;;;;;;13.30;7.35;;;;;;;7.09;69.50;101750.09;5051427;28;20035;-71
2022/04/11 07:16:14;;;;;;;14.75;8.00;;;;;;;7.15;68.91;101751.28;5051351;28;20024;-69
2022/04/11 07:18:40;;;;;;;16.52;9.48;;;;;;;7.24;70.53;101745.09;5045556;28;20037;-70
2022/04/11 07:21:06;;;;;;;13.50;8.07;;;;;;;7.37;69.20;101750.84;5046768;28;20364;-69
2022/04/11 07:23:31;;;;;;;19.95;9.80;;;;;;;7.50;67.93;101742.47;5047118;28;20934;-71
2022/04/11 07:25:56;;;;;;;16.05;9.13;;;;;;;7.66;68.28;101744.44;5046848;28;20033;-70
2022/04/11 07:28:22;;;;;;;14.18;8.38;;;;;;;7.79;67.24;101722.78;5046118;28;20455;-68
2022/04/11 07:30:47;;;;;;;16.40;8.38;;;;;;;8.06;66.90;101732.38;5047090;28;20021;-71
2022/04/11 07:33:12;;;;;;;16.98;9.85;;;;;;;8.27;65.74;101726.66;5046871;28;20111;-68
2022/04/11 07:35:38;;;;;;;13.88;7.72;;;;;;;8.44;64.65;101715.13;5046208;28;20113;-71
2022/04/11 07:38:03;;;;;;;13.70;8.52;;;;;;;8.70;63.49;101708.91;5046510;28;20052;-69
2022/04/11 07:40:29;;;;;;;13.93;8.45;;;;;;;9.03;63.26;101725.72;5045450;28;20071;-69
2022/04/11 07:42:55;;;;;;;17.40;8.05;;;;;;;9.20;62.34;101713.28;5048930;28;20457;-71
2022/04/11 07:45:20;;;;;;;12.48;7.53;;;;;;;9.41;61.92;101720.75;5050919;28;20044;-69
2022/04/11 07:47:46;;;;;;;12.07;8.05;;;;;;;9.57;60.78;101717.25;5050572;28;20040;-69
2022/04/11 07:50:11;;;;;;;12.25;7.03;;;;;;;9.82;61.91;101713.53;5050828;28;20108;-71
2022/04/11 07:52:38;;;;;;;12.25;7.22;;;;;;;10.12;61.25;101712.94;5050699;28;20028;-69
2022/04/11 07:55:05;;;;;;;14.15;7.15;;;;;;;10.81;58.08;101713.94;5050693;28;20045;-69
2022/04/11 07:57:30;;;;;;;12.00;7.13;;;;;;;11.61;55.77;101707.28;5050742;28;20127;-69
2022/04/11 07:59:56;;;;;;;12.88;7.43;;;;;;;12.05;54.02;101707.34;5049424;28;20128;-69
2022/04/11 08:02:25;;;;;;;13.27;7.45;;;;;;;12.47;52.83;101702.28;5050383;28;20063;-69
2022/04/11 08:04:54;;;;;;;14.20;9.45;;;;;;;12.87;50.96;101698.19;5050469;28;20044;-69
2022/04/11 08:07:20;;;;;;;12.57;6.47;;;;;;;13.67;50.50;101696.19;5050631;28;20032;-69
2022/04/11 08:09:46;;;;;;;10.82;6.75;;;;;;;14.37;47.78;101696.13;5050418;28;20071;-69
2022/04/11 08:12:12;;;;;;;10.57;6.00;;;;;;;15.18;47.35;101693.44;5050505;28;20033;-70
2022/04/11 08:14:37;;;;;;;12.30;6.15;;;;;;;16.42;42.49;101689.03;5050288;28;20025;-69
2022/04/11 08:17:03;;;;;;;10.35;6.07;;;;;;;17.05;41.17;101689.06;5050341;28;20042;-71
2022/04/11 08:19:29;;;;;;;9.95;5.50;;;;;;;17.71;40.26;101687.66;5049896;28;20102;-69
2022/04/11 08:21:55;;;;;;;11.48;6.07;;;;;;;18.39;38.68;101693.94;5049999;28;20037;-70
2022/04/11 08:24:21;;;;;;;10.65;6.50;;;;;;;18.71;38.10;101686.44;5050094;28;20113;-69
2022/04/11 08:26:46;;;;;;;12.38;5.18;;;;;;;18.86;35.97;101674.41;5050265;28;20101;-69
2022/04/11 08:29:11;;;;;;;10.57;5.35;;;;;;;18.78;35.98;101670.97;5050045;28;20033;-69
2022/04/11 08:31:37;;;;;;;8.00;5.45;;;;;;;18.70;36.64;101678.56;5048750;28;20033;-70
2022/04/11 08:34:02;;;;;;;12.88;6.03;;;;;;;18.45;37.84;101670.63;5050229;28;20041;-70
2022/04/11 08:36:28;;;;;;;6.68;4.45;;;;;;;18.07;36.93;101675.22;5049888;28;20420;-71
2022/04/11 08:38:53;;;;;;;7.70;5.13;;;;;;;17.67;38.95;101675.66;5048370;28;20089;-69
2022/04/11 08:41:19;;;;;;;6.22;4.78;;;;;;;16.81;39.02;101668.31;5049980;28;20118;-71
2022/04/11 08:43:45;;;;;;;7.82;4.45;;;;;;;15.87;40.47;101672.47;5049841;28;20041;-70
2022/04/11 08:46:15;;;;;;;9.23;4.05;;;;;;;15.08;42.58;101668.84;5049596;28;20427;-69
2022/04/11 08:48:43;;;;;;;7.88;4.03;;;;;;;14.40;42.85;101676.94;5048974;28;20484;-69
2022/04/11 08:51:09;;;;;;;7.70;4.15;;;;;;;13.89;45.65;101674.69;5049653;28;20029;-69
2022/04/11 08:53:34;;;;;;;12.50;5.30;;;;;;;13.49;46.62;101672.59;5049391;28;20119;-69
2022/04/11 08:55:59;;;;;;;7.93;4.75;;;;;;;13.31;47.36;101669.56;5049544;28;20029;-71
2022/04/11 08:58:25;;;;;;;8.52;4.30;;;;;;;13.08;47.41;101649.16;5049364;28;20472;-70
2022/04/11 09:00:50;;;;;;;10.05;4.70;;;;;;;13.11;47.24;101656.78;5049540;28;20024;-69
2022/04/11 09:03:16;;;;;;;6.60;3.97;;;;;;;12.92;47.75;101647.56;5049498;28;20053;-70
2022/04/11 09:05:41;;;;;;;5.43;3.78;;;;;;;12.85;46.71;101661.91;5049511;28;20036;-69
2022/04/11 09:08:07;;;;;;;8.13;3.60;;;;;;;12.72;47.90;101655.41;5049527;28;20483;-69
2022/04/11 09:10:37;;;;;;;8.88;4.38;;;;;;;12.74;46.44;101662.44;5049434;28;20442;-69
2022/04/11 09:13:05;;;;;;;6.40;3.60;;;;;;;12.71;46.76;101660.97;5049246;28;20037;-69
2022/04/11 09:15:40;;;;;;;9.07;4.82;;;;;;;12.66;49.74;101652.69;5049218;28;20548;-69
2022/04/11 09:18:06;;;;;;;11.23;4.75;;;;;;;12.78;48.22;101659.16;5049092;28;20037;-69
2022/04/11 09:20:31;;;;;;;7.55;4.18;;;;;;;12.83;47.83;101663.97;5049341;28;20116;-69
2022/04/11 09:22:58;;;;;;;7.28;4.05;;;;;;;12.99;48.35;101660.19;5048691;28;20035;-69
2022/04/11 09:25:28;;;;;;;11.07;6.57;;;;;;;13.06;49.06;101658.41;5048789;28;20071;-69
2022/04/11 09:28:11;;;;;;;4.93;3.40;;;;;;;13.07;46.78;101655.53;5049100;28;20112;-69
2022/04/11 09:30:38;;;;;;;7.25;4.28;;;;;;;13.04;44.24;101653.22;5049183;28;20058;-69
2022/04/11 09:33:09;;;;;;;6.78;5.45;;;;;;;13.06;47.53;101639.66;5048990;28;20106;-69
2022/04/11 09:35:36;;;;;;;8.07;4.10;;;;;;;13.19;46.48;101645.13;5048673;28;20021;-69
2022/04/11 09:38:16;;;;;;;9.02;4.97;;;;;;;13.14;46.04;101636.84;5048877;28;20271;-69
2022/04/11 09:40:48;;;;;;;7.88;4.57;;;;;;;13.07;45.70;101630.59;5048226;28;20111;-69
2022/04/11 09:43:14;;;;;;;6.10;3.97;;;;;;;13.09;47.00;101624.00;5049041;28;20112;-69
2022/04/11 09:45:40;;;;;;;12.05;6.10;;;;;;;13.25;44.72;101627.44;5048769;28;20111;-69
2022/04/11 09:48:06;;;;;;;5.78;4.45;;;;;;;13.20;45.07;101622.66;5049014;28;20433;-69
2022/04/11 09:50:32;;;;;;;9.27;4.78;;;;;;;13.17;46.23;101620.38;5049116;28;20067;-69
2022/04/11 09:53:07;;;;;;;8.38;3.88;;;;;;;13.28;46.52;101619.88;5047449;28;20033;-69
2022/04/11 09:55:34;;;;;;;6.85;2.92;;;;;;;13.34;42.05;101615.59;5048802;28;20403;-69
2022/04/11 09:58:03;;;;;;;11.95;5.00;;;;;;;13.35;44.73;101612.69;5048811;28;20508;-69
2022/04/11 10:00:29;;;;;;;7.25;4.10;;;;;;;13.42;44.83;101614.59;5051856;28;20041;-69
2022/04/11 10:02:57;;;;;;;7.93;4.25;;;;;;;13.35;42.34;101607.34;5051513;28;20116;-69
2022/04/11 10:05:24;;;;;;;7.90;4.38;;;;;;;13.44;45.38;101617.91;5052888;28;20041;-69
2022/04/11 10:07:53;;;;;;;10.98;4.82;;;;;;;13.45;42.72;101615.03;5052970;28;20029;-69
2022/04/11 10:10:20;;;;;;;7.55;3.83;;;;;;;13.44;43.04;101612.53;5052729;28;20033;-69
2022/04/11 10:12:46;;;;;;;5.47;4.10;;;;;;;13.47;43.18;101609.50;5051649;28;20025;-68
2022/04/11 10:15:12;;;;;;;10.80;4.43;;;;;;;13.51;42.60;101602.69;5047301;28;20039;-68
2022/04/11 10:17:37;;;;;;;10.32;4.50;;;;;;;13.57;42.38;101594.69;5048739;28;20484;-67
2022/04/11 10:20:04;;;;;;;7.93;4.35;;;;;;;13.58;42.86;101593.66;5052586;28;20104;-70
2022/04/11 10:22:38;;;;;;;4.53;3.70;;;;;;;13.74;47.29;101597.03;5052667;28;20518;-68
2022/04/11 10:25:06;;;;;;;7.70;4.20;;;;;;;13.79;42.14;101592.72;5052205;28;20464;-68
2022/04/11 10:27:32;;;;;;;14.57;4.95;;;;;;;13.65;40.03;101587.50;5052029;28;20063;-68
2022/04/11 10:29:59;;;;;;;8.48;4.38;;;;;;;13.62;43.12;101591.41;5052502;28;20100;-68
2022/04/11 10:32:29;;;;;;;6.35;4.55;;;;;;;13.64;42.17;101588.53;5052391;28;20057;-68
2022/04/11 10:35:04;;;;;;;6.82;4.60;;;;;;;13.75;44.08;101588.81;5052361;28;20048;-68
2022/04/11 10:37:35;;;;;;;7.75;4.28;;;;;;;13.77;41.92;101583.25;5052288;28;20021;-68
2022/04/11 10:40:35;;;;;;;7.55;3.78;;;;;;;13.74;44.35;101576.41;5052217;28;20578;-68
2022/04/11 10:43:08;;;;;;;3.88;3.28;;;;;;;13.82;43.22;101589.66;5039639;28;20496;-69
2022/04/11 10:45:45;;;;;;;4.50;3.55;;;;;;;13.82;39.74;101580.78;5052115;28;20040;-69
2022/04/11 10:48:12;;;;;;;7.40;3.95;;;;;;;13.75;39.46;101579.91;5051984;28;20060;-68
2022/04/11 10:50:44;;;;;;;7.45;3.15;;;;;;;13.79;42.15;101579.34;5051990;28;20056;-68
2022/04/11 10:53:25;;;;;;;7.43;3.40;;;;;;;13.89;41.88;101568.25;5051831;28;20037;-68
2022/04/11 10:55:59;;;;;;;;;;;;;;;14.02;43.53;101578.19;5012875;28;20112;-68
2022/04/11 10:58:50;;;;;;;6.10;3.90;;;;;;;14.15;41.73;101564.00;5012352;28;19917;-68
2022/04/11 11:01:43;;;;;;;8.15;4.00;;;;;;;14.05;40.73;101568.91;5011987;28;20030;-68
2022/04/11 11:04:17;;;;;;;31.40;5.57;;;;;;;13.96;40.69;101558.38;5012119;28;20026;-68
2022/04/11 11:06:42;;;;;;;6.88;3.70;;;;;;;14.03;40.18;101561.88;5012028;28;20145;-68
2022/04/11 11:09:18;;;;;;;7.90;4.30;;;;;;;13.96;39.69;101536.06;5006838;28;20108;-69
2022/04/11 11:11:49;;;;;;;5.93;3.75;;;;;;;14.09;43.14;101554.88;5007221;28;20060;-69
2022/04/11 11:14:42;;;;;;;5.25;4.05;;;;;;;14.16;42.82;101544.16;5007510;28;20030;-71
2022/04/11 11:17:08;;;;;;;8.82;4.43;;;;;;;14.14;38.96;101552.41;5007628;28;20038;-68
2022/04/11 11:20:01;;;;;;;11.23;4.22;;;;;;;14.12;41.27;101537.53;5007342;28;20367;-69
2022/04/11 11:22:31;;;;;;;7.55;4.35;;;;;;;14.06;39.20;101533.00;5007552;28;20034;-69